sensor_id;sensor_type;location;lat;lon;timestamp;temperature;humidity
3308;DHT22;1666;48.898;9.182;2024-01-16T00:00:13;-0.10;1.00
3308;DHT22;1666;48.898;9.182;2024-01-16T00:02:44;-0.10;1.00
3308;DHT22;1666;48.898;9.182;2024-01-16T00:05:17;-0.20;1.00
3308;DHT22;1666;48.898;9.182;2024-01-16T00:07:47;-0.10;1.00
3308;DHT22;1666;48.898;9.182;2024-01-16T00:10:17;-0.20;1.00
3308;DHT22;1666;48.898;9.182;2024-01-16T00:12:47;-0.20;1.00
3308;DHT22;1666;48.898;9.182;2024-01-16T00:15:17;-0.30;1.00
3308;DHT22;1666;48.898;9.182;2024-01-16T00:17:48;-0.30;1.00
3308;DHT22;1666;48.898;9.182;2024-01-16T00:20:21;-0.30;1.00
3308;DHT22;1666;48.898;9.182;2024-01-16T00:22:52;-0.40;1.00
3308;DHT22;1666;48.898;9.182;2024-01-16T00:25:23;-0.50;1.00
3308;DHT22;1666;48.898;9.182;2024-01-16T00:27:54;-0.50;1.00
3308;DHT22;1666;48.898;9.182;2024-01-16T00:30:24;-0.60;1.00
3308;DHT22;1666;48.898;9.182;2024-01-16T00:32:54;-0.60;1.00
3308;DHT22;1666;48.898;9.182;2024-01-16T00:35:27;-0.60;1.00
3308;DHT22;1666;48.898;9.182;2024-01-16T00:37:57;-0.60;1.00
3308;DHT22;1666;48.898;9.182;2024-01-16T00:40:27;-0.60;1.00
3308;DHT22;1666;48.898;9.182;2024-01-16T00:42:57;-0.70;1.00
3308;DHT22;1666;48.898;9.182;2024-01-16T00:45:27;-0.60;1.00
3308;DHT22;1666;48.898;9.182;2024-01-16T00:47:57;-0.70;1.00
3308;DHT22;1666;48.898;9.182;2024-01-16T00:50:30;-0.70;1.00
3308;DHT22;1666;48.898;9.182;2024-01-16T00:53:00;-0.80;1.00
3308;DHT22;1666;48.898;9.182;2024-01-16T00:55:30;-0.80;1.00
3308;DHT22;1666;48.898;9.182;2024-01-16T00:58:00;-0.80;1.00
3308;DHT22;1666;48.898;9.182;2024-01-16T01:00:30;-0.80;1.00
3308;DHT22;1666;48.898;9.182;2024-01-16T01:03:02;-0.90;1.00
3308;DHT22;1666;48.898;9.182;2024-01-16T01:05:35;-0.70;1.00
3308;DHT22;1666;48.898;9.182;2024-01-16T01:08:06;-0.80;1.00
3308;DHT22;1666;48.898;9.182;2024-01-16T01:10:37;-0.80;1.00
3308;DHT22;1666;48.898;9.182;2024-01-16T01:13:07;-0.70;1.00
3308;DHT22;1666;48.898;9.182;2024-01-16T01:15:37;-0.80;1.00
3308;DHT22;1666;48.898;9.182;2024-01-16T01:18:07;-0.80;1.00
3308;DHT22;1666;48.898;9.182;2024-01-16T01:20:40;-0.80;1.00
3308;DHT22;1666;48.898;9.182;2024-01-16T01:23:10;-0.80;1.00
3308;DHT22;1666;48.898;9.182;2024-01-16T01:25:40;-0.80;1.00
3308;DHT22;1666;48.898;9.182;2024-01-16T01:28:11;-0.90;1.00
3308;DHT22;1666;48.898;9.182;2024-01-16T01:30:41;-0.90;1.00
3308;DHT22;1666;48.898;9.182;2024-01-16T01:33:11;-0.90;1.00
3308;DHT22;1666;48.898;9.182;2024-01-16T01:35:44;-0.90;1.00
3308;DHT22;1666;48.898;9.182;2024-01-16T01:38:14;-0.90;1.00
3308;DHT22;1666;48.898;9.182;2024-01-16T01:40:46;-0.90;1.00
3308;DHT22;1666;48.898;9.182;2024-01-16T01:43:20;-0.90;1.00
3308;DHT22;1666;48.898;9.182;2024-01-16T01:46:01;-0.80;1.00
3308;DHT22;1666;48.898;9.182;2024-01-16T01:48:37;-0.80;1.00
3308;DHT22;1666;48.898;9.182;2024-01-16T01:51:11;-0.80;1.00
3308;DHT22;1666;48.898;9.182;2024-01-16T01:53:42;-0.90;1.00
3308;DHT22;1666;48.898;9.182;2024-01-16T01:56:15;-0.90;1.00
3308;DHT22;1666;48.898;9.182;2024-01-16T01:58:47;-0.80;1.00
3308;DHT22;1666;48.898;9.182;2024-01-16T02:01:18;-0.90;1.00
3308;DHT22;1666;48.898;9.182;2024-01-16T02:03:50;-0.90;1.00
3308;DHT22;1666;48.898;9.182;2024-01-16T02:06:23;-0.80;1.00
3308;DHT22;1666;48.898;9.182;2024-01-16T02:08:53;-0.90;1.00
3308;DHT22;1666;48.898;9.182;2024-01-16T02:11:24;-0.90;1.00
3308;DHT22;1666;48.898;9.182;2024-01-16T02:13:54;-0.90;1.00
3308;DHT22;1666;48.898;9.182;2024-01-16T02:16:24;-0.90;1.00
3308;DHT22;1666;48.898;9.182;2024-01-16T02:18:55;-0.90;1.00
3308;DHT22;1666;48.898;9.182;2024-01-16T02:21:28;-0.90;1.00
3308;DHT22;1666;48.898;9.182;2024-01-16T02:24:04;-1.00;1.00
3308;DHT22;1666;48.898;9.182;2024-01-16T02:26:35;-1.00;1.00
3308;DHT22;1666;48.898;9.182;2024-01-16T02:29:05;-1.00;1.00
3308;DHT22;1666;48.898;9.182;2024-01-16T02:31:35;-0.90;1.00
3308;DHT22;1666;48.898;9.182;2024-01-16T02:34:05;-0.90;1.00
3308;DHT22;1666;48.898;9.182;2024-01-16T02:36:36;-1.00;1.00
3308;DHT22;1666;48.898;9.182;2024-01-16T02:39:08;-0.90;1.00
3308;DHT22;1666;48.898;9.182;2024-01-16T02:41:38;-0.90;1.00
3308;DHT22;1666;48.898;9.182;2024-01-16T02:44:08;-0.90;1.00
3308;DHT22;1666;48.898;9.182;2024-01-16T02:46:38;-1.00;1.00
3308;DHT22;1666;48.898;9.182;2024-01-16T02:49:08;-1.00;1.00
3308;DHT22;1666;48.898;9.182;2024-01-16T02:51:39;-1.10;1.00
3308;DHT22;1666;48.898;9.182;2024-01-16T02:54:11;-1.10;1.00
3308;DHT22;1666;48.898;9.182;2024-01-16T02:56:41;-1.10;1.00
3308;DHT22;1666;48.898;9.182;2024-01-16T02:59:11;-1.10;1.00
3308;DHT22;1666;48.898;9.182;2024-01-16T03:01:41;-1.10;1.00
3308;DHT22;1666;48.898;9.182;2024-01-16T03:04:11;-1.20;1.00
3308;DHT22;1666;48.898;9.182;2024-01-16T03:06:41;-1.30;1.00
3308;DHT22;1666;48.898;9.182;2024-01-16T03:09:14;-1.30;1.00
3308;DHT22;1666;48.898;9.182;2024-01-16T03:11:45;-1.40;1.00
3308;DHT22;1666;48.898;9.182;2024-01-16T03:14:15;-1.30;1.00
3308;DHT22;1666;48.898;9.182;2024-01-16T03:16:45;-1.30;1.00
3308;DHT22;1666;48.898;9.182;2024-01-16T03:19:15;-1.30;1.00
3308;DHT22;1666;48.898;9.182;2024-01-16T03:21:46;-1.30;1.00
3308;DHT22;1666;48.898;9.182;2024-01-16T03:24:18;-1.30;1.00
3308;DHT22;1666;48.898;9.182;2024-01-16T03:26:49;-1.30;1.00
3308;DHT22;1666;48.898;9.182;2024-01-16T03:29:19;-1.40;1.00
3308;DHT22;1666;48.898;9.182;2024-01-16T03:31:50;-1.40;1.00
3308;DHT22;1666;48.898;9.182;2024-01-16T03:34:20;-1.40;1.00
3308;DHT22;1666;48.898;9.182;2024-01-16T03:36:50;-1.40;1.00
3308;DHT22;1666;48.898;9.182;2024-01-16T03:39:24;-1.30;1.00
3308;DHT22;1666;48.898;9.182;2024-01-16T03:41:54;-1.40;1.00
3308;DHT22;1666;48.898;9.182;2024-01-16T03:44:24;-1.40;1.00
3308;DHT22;1666;48.898;9.182;2024-01-16T03:46:54;-1.40;1.00
3308;DHT22;1666;48.898;9.182;2024-01-16T03:49:24;-1.50;1.00
3308;DHT22;1666;48.898;9.182;2024-01-16T03:51:54;-1.50;1.00
3308;DHT22;1666;48.898;9.182;2024-01-16T03:54:26;-1.60;1.00
3308;DHT22;1666;48.898;9.182;2024-01-16T03:56:56;-1.70;1.00
3308;DHT22;1666;48.898;9.182;2024-01-16T03:59:27;-1.70;1.00
3308;DHT22;1666;48.898;9.182;2024-01-16T04:01:57;-1.80;1.00
3308;DHT22;1666;48.898;9.182;2024-01-16T04:04:27;-1.80;1.00
3308;DHT22;1666;48.898;9.182;2024-01-16T04:06:57;-1.80;1.00
3308;DHT22;1666;48.898;9.182;2024-01-16T04:09:30;-1.90;1.00
3308;DHT22;1666;48.898;9.182;2024-01-16T04:12:00;-1.90;1.00
3308;DHT22;1666;48.898;9.182;2024-01-16T04:14:30;-1.90;1.00
3308;DHT22;1666;48.898;9.182;2024-01-16T04:17:00;-1.90;1.00
3308;DHT22;1666;48.898;9.182;2024-01-16T04:19:30;-2.00;1.00
3308;DHT22;1666;48.898;9.182;2024-01-16T04:22:01;-2.00;1.00
3308;DHT22;1666;48.898;9.182;2024-01-16T04:24:34;-2.00;1.00
3308;DHT22;1666;48.898;9.182;2024-01-16T04:27:04;-2.10;1.00
3308;DHT22;1666;48.898;9.182;2024-01-16T04:29:36;-2.10;1.00
3308;DHT22;1666;48.898;9.182;2024-01-16T04:32:07;-2.20;1.00
3308;DHT22;1666;48.898;9.182;2024-01-16T04:34:38;-2.20;1.00
3308;DHT22;1666;48.898;9.182;2024-01-16T04:37:08;-2.20;1.00
3308;DHT22;1666;48.898;9.182;2024-01-16T04:39:42;-2.20;1.00
3308;DHT22;1666;48.898;9.182;2024-01-16T04:42:12;-2.20;1.00
3308;DHT22;1666;48.898;9.182;2024-01-16T04:44:46;-2.20;1.00
3308;DHT22;1666;48.898;9.182;2024-01-16T04:47:17;-2.20;1.00
3308;DHT22;1666;48.898;9.182;2024-01-16T04:49:48;-2.30;1.00
3308;DHT22;1666;48.898;9.182;2024-01-16T04:52:19;-2.30;1.00
3308;DHT22;1666;48.898;9.182;2024-01-16T04:54:52;-2.30;1.00
3308;DHT22;1666;48.898;9.182;2024-01-16T04:57:23;-2.30;1.00
3308;DHT22;1666;48.898;9.182;2024-01-16T04:59:54;-2.40;1.00
3308;DHT22;1666;48.898;9.182;2024-01-16T05:02:25;-2.40;1.00
3308;DHT22;1666;48.898;9.182;2024-01-16T05:04:56;-2.40;1.00
3308;DHT22;1666;48.898;9.182;2024-01-16T05:07:26;-2.50;1.00
3308;DHT22;1666;48.898;9.182;2024-01-16T05:09:58;-2.50;1.00
3308;DHT22;1666;48.898;9.182;2024-01-16T05:12:28;-2.50;1.00
3308;DHT22;1666;48.898;9.182;2024-01-16T05:14:58;-2.50;1.00
3308;DHT22;1666;48.898;9.182;2024-01-16T05:17:29;-2.50;1.00
3308;DHT22;1666;48.898;9.182;2024-01-16T05:19:59;-2.50;1.00
3308;DHT22;1666;48.898;9.182;2024-01-16T05:22:31;-2.50;1.00
3308;DHT22;1666;48.898;9.182;2024-01-16T05:25:04;-2.40;1.00
3308;DHT22;1666;48.898;9.182;2024-01-16T05:27:35;-2.40;1.00
3308;DHT22;1666;48.898;9.182;2024-01-16T05:30:06;-2.40;1.00
3308;DHT22;1666;48.898;9.182;2024-01-16T05:32:36;-2.30;1.00
3308;DHT22;1666;48.898;9.182;2024-01-16T05:35:08;-2.30;1.00
3308;DHT22;1666;48.898;9.182;2024-01-16T05:37:38;-2.30;1.00
3308;DHT22;1666;48.898;9.182;2024-01-16T05:40:11;-2.30;1.00
3308;DHT22;1666;48.898;9.182;2024-01-16T05:42:41;-2.30;1.00
3308;DHT22;1666;48.898;9.182;2024-01-16T05:45:11;-2.30;1.00
3308;DHT22;1666;48.898;9.182;2024-01-16T05:47:41;-2.30;1.00
3308;DHT22;1666;48.898;9.182;2024-01-16T05:50:12;-2.40;1.00
3308;DHT22;1666;48.898;9.182;2024-01-16T05:52:44;-2.50;1.00
3308;DHT22;1666;48.898;9.182;2024-01-16T05:55:16;-2.50;1.00
3308;DHT22;1666;48.898;9.182;2024-01-16T05:57:48;-2.50;1.00
3308;DHT22;1666;48.898;9.182;2024-01-16T06:00:18;-2.50;1.00
3308;DHT22;1666;48.898;9.182;2024-01-16T06:02:50;-2.50;1.00
3308;DHT22;1666;48.898;9.182;2024-01-16T06:05:20;-2.50;1.00
3308;DHT22;1666;48.898;9.182;2024-01-16T06:07:52;-2.50;1.00
3308;DHT22;1666;48.898;9.182;2024-01-16T06:10:24;-2.40;1.00
3308;DHT22;1666;48.898;9.182;2024-01-16T06:12:54;-2.40;1.00
3308;DHT22;1666;48.898;9.182;2024-01-16T06:15:24;-2.30;1.00
3308;DHT22;1666;48.898;9.182;2024-01-16T06:17:54;-2.30;1.00
3308;DHT22;1666;48.898;9.182;2024-01-16T06:20:24;-2.30;1.00
3308;DHT22;1666;48.898;9.182;2024-01-16T06:22:56;-2.20;1.00
3308;DHT22;1666;48.898;9.182;2024-01-16T06:25:29;-2.20;1.00
3308;DHT22;1666;48.898;9.182;2024-01-16T06:27:59;-2.20;1.00
3308;DHT22;1666;48.898;9.182;2024-01-16T06:30:30;-2.20;1.00
3308;DHT22;1666;48.898;9.182;2024-01-16T06:33:00;-2.20;1.00
3308;DHT22;1666;48.898;9.182;2024-01-16T06:35:31;-2.20;1.00
3308;DHT22;1666;48.898;9.182;2024-01-16T06:38:01;-2.30;1.00
3308;DHT22;1666;48.898;9.182;2024-01-16T06:40:34;-2.30;1.00
3308;DHT22;1666;48.898;9.182;2024-01-16T06:43:04;-2.30;1.00
3308;DHT22;1666;48.898;9.182;2024-01-16T06:45:34;-2.30;1.00
3308;DHT22;1666;48.898;9.182;2024-01-16T06:48:04;-2.20;1.00
3308;DHT22;1666;48.898;9.182;2024-01-16T06:50:35;-2.20;1.00
3308;DHT22;1666;48.898;9.182;2024-01-16T06:53:05;-2.10;1.00
3308;DHT22;1666;48.898;9.182;2024-01-16T06:55:37;-2.10;1.00
3308;DHT22;1666;48.898;9.182;2024-01-16T06:58:07;-2.10;1.00
3308;DHT22;1666;48.898;9.182;2024-01-16T07:00:37;-2.10;1.00
3308;DHT22;1666;48.898;9.182;2024-01-16T07:03:08;-2.10;1.00
3308;DHT22;1666;48.898;9.182;2024-01-16T07:05:39;-2.10;1.00
3308;DHT22;1666;48.898;9.182;2024-01-16T07:08:10;-2.10;1.00
3308;DHT22;1666;48.898;9.182;2024-01-16T07:10:43;-2.10;1.00
3308;DHT22;1666;48.898;9.182;2024-01-16T07:13:13;-2.00;1.00
3308;DHT22;1666;48.898;9.182;2024-01-16T07:15:45;-2.00;1.00
3308;DHT22;1666;48.898;9.182;2024-01-16T07:18:15;-2.00;1.00
3308;DHT22;1666;48.898;9.182;2024-01-16T07:20:46;-2.00;1.00
3308;DHT22;1666;48.898;9.182;2024-01-16T07:23:16;-2.00;1.00
3308;DHT22;1666;48.898;9.182;2024-01-16T07:25:48;-1.90;1.00
3308;DHT22;1666;48.898;9.182;2024-01-16T07:28:18;-1.90;1.00
3308;DHT22;1666;48.898;9.182;2024-01-16T07:30:49;-2.00;1.00
3308;DHT22;1666;48.898;9.182;2024-01-16T07:33:19;-2.00;1.00
3308;DHT22;1666;48.898;9.182;2024-01-16T07:35:49;-2.00;1.00
3308;DHT22;1666;48.898;9.182;2024-01-16T07:38:20;-2.00;1.00
3308;DHT22;1666;48.898;9.182;2024-01-16T07:40:53;-2.00;1.00
3308;DHT22;1666;48.898;9.182;2024-01-16T07:43:23;-1.90;1.00
3308;DHT22;1666;48.898;9.182;2024-01-16T07:45:53;-2.00;1.00
3308;DHT22;1666;48.898;9.182;2024-01-16T07:48:23;-1.90;1.00
3308;DHT22;1666;48.898;9.182;2024-01-16T07:50:53;-2.00;1.00
3308;DHT22;1666;48.898;9.182;2024-01-16T07:53:23;-1.90;1.00
3308;DHT22;1666;48.898;9.182;2024-01-16T07:55:57;-1.90;1.00
3308;DHT22;1666;48.898;9.182;2024-01-16T07:58:27;-1.90;1.00
3308;DHT22;1666;48.898;9.182;2024-01-16T08:00:57;-1.90;1.00
3308;DHT22;1666;48.898;9.182;2024-01-16T08:03:28;-1.80;1.00
3308;DHT22;1666;48.898;9.182;2024-01-16T08:05:58;-1.80;1.00
3308;DHT22;1666;48.898;9.182;2024-01-16T08:08:29;-1.80;1.00
3308;DHT22;1666;48.898;9.182;2024-01-16T08:11:04;-1.70;1.00
3308;DHT22;1666;48.898;9.182;2024-01-16T08:13:34;-1.60;1.00
3308;DHT22;1666;48.898;9.182;2024-01-16T08:16:04;-1.60;1.00
3308;DHT22;1666;48.898;9.182;2024-01-16T08:18:38;-1.50;1.00
3308;DHT22;1666;48.898;9.182;2024-01-16T08:21:08;-1.40;1.00
3308;DHT22;1666;48.898;9.182;2024-01-16T08:23:38;-1.40;1.00
3308;DHT22;1666;48.898;9.182;2024-01-16T08:26:11;-1.30;1.00
3308;DHT22;1666;48.898;9.182;2024-01-16T08:28:41;-1.30;1.00
3308;DHT22;1666;48.898;9.182;2024-01-16T08:31:11;-1.30;1.00
3308;DHT22;1666;48.898;9.182;2024-01-16T08:33:41;-1.20;1.00
3308;DHT22;1666;48.898;9.182;2024-01-16T08:36:14;-1.10;1.00
3308;DHT22;1666;48.898;9.182;2024-01-16T08:38:44;-1.10;1.00
3308;DHT22;1666;48.898;9.182;2024-01-16T08:41:17;-1.10;1.00
3308;DHT22;1666;48.898;9.182;2024-01-16T08:43:47;-1.10;1.00
3308;DHT22;1666;48.898;9.182;2024-01-16T08:46:18;-1.10;1.00
3308;DHT22;1666;48.898;9.182;2024-01-16T08:48:49;-0.90;1.00
3308;DHT22;1666;48.898;9.182;2024-01-16T08:51:20;-0.90;1.00
3308;DHT22;1666;48.898;9.182;2024-01-16T08:53:50;-0.90;1.00
3308;DHT22;1666;48.898;9.182;2024-01-16T08:56:22;-0.90;1.00
3308;DHT22;1666;48.898;9.182;2024-01-16T08:58:53;-0.80;1.00
3308;DHT22;1666;48.898;9.182;2024-01-16T09:01:23;-0.70;1.00
3308;DHT22;1666;48.898;9.182;2024-01-16T09:03:53;-0.70;1.00
3308;DHT22;1666;48.898;9.182;2024-01-16T09:06:23;-0.60;1.00
3308;DHT22;1666;48.898;9.182;2024-01-16T09:08:54;-0.70;1.00
3308;DHT22;1666;48.898;9.182;2024-01-16T09:11:26;-0.60;1.00
3308;DHT22;1666;48.898;9.182;2024-01-16T09:13:56;-0.60;1.00
3308;DHT22;1666;48.898;9.182;2024-01-16T09:16:30;-0.50;1.00
3308;DHT22;1666;48.898;9.182;2024-01-16T09:19:00;-0.50;1.00
3308;DHT22;1666;48.898;9.182;2024-01-16T09:21:30;-0.50;1.00
3308;DHT22;1666;48.898;9.182;2024-01-16T09:24:00;-0.40;1.00
3308;DHT22;1666;48.898;9.182;2024-01-16T09:26:33;-0.30;1.00
3308;DHT22;1666;48.898;9.182;2024-01-16T09:29:03;-0.20;1.00
3308;DHT22;1666;48.898;9.182;2024-01-16T09:31:33;-0.20;1.00
3308;DHT22;1666;48.898;9.182;2024-01-16T09:34:03;-0.10;1.00
3308;DHT22;1666;48.898;9.182;2024-01-16T09:36:36;0.00;1.00
3308;DHT22;1666;48.898;9.182;2024-01-16T09:39:07;-0.20;1.00
3308;DHT22;1666;48.898;9.182;2024-01-16T09:41:47;-0.20;1.00
3308;DHT22;1666;48.898;9.182;2024-01-16T09:44:17;-0.20;1.00
3308;DHT22;1666;48.898;9.182;2024-01-16T09:46:48;-0.20;1.00
3308;DHT22;1666;48.898;9.182;2024-01-16T09:49:19;-0.10;1.00
3308;DHT22;1666;48.898;9.182;2024-01-16T09:51:50;0.00;1.00
3308;DHT22;1666;48.898;9.182;2024-01-16T09:54:20;0.20;1.00
3308;DHT22;1666;48.898;9.182;2024-01-16T09:56:54;0.20;1.00
3308;DHT22;1666;48.898;9.182;2024-01-16T09:59:29;0.30;1.00
3308;DHT22;1666;48.898;9.182;2024-01-16T10:02:00;0.30;1.00
3308;DHT22;1666;48.898;9.182;2024-01-16T10:04:34;0.50;1.00
3308;DHT22;1666;48.898;9.182;2024-01-16T10:07:04;0.60;1.00
3308;DHT22;1666;48.898;9.182;2024-01-16T10:09:34;0.60;1.00
3308;DHT22;1666;48.898;9.182;2024-01-16T10:12:08;0.50;1.00
3308;DHT22;1666;48.898;9.182;2024-01-16T10:14:39;0.50;1.00
3308;DHT22;1666;48.898;9.182;2024-01-16T10:17:10;0.60;1.00
3308;DHT22;1666;48.898;9.182;2024-01-16T10:19:50;0.70;1.00
3308;DHT22;1666;48.898;9.182;2024-01-16T10:22:23;0.70;1.00
3308;DHT22;1666;48.898;9.182;2024-01-16T10:25:10;0.70;1.00
3308;DHT22;1666;48.898;9.182;2024-01-16T10:27:47;0.70;1.00
3308;DHT22;1666;48.898;9.182;2024-01-16T10:30:21;0.70;1.00
3308;DHT22;1666;48.898;9.182;2024-01-16T10:32:53;0.80;1.00
3308;DHT22;1666;48.898;9.182;2024-01-16T10:35:24;0.80;1.00
3308;DHT22;1666;48.898;9.182;2024-01-16T10:37:55;0.80;1.00
3308;DHT22;1666;48.898;9.182;2024-01-16T10:40:25;0.80;1.00
3308;DHT22;1666;48.898;9.182;2024-01-16T10:43:02;1.00;1.00
3308;DHT22;1666;48.898;9.182;2024-01-16T10:45:32;1.20;1.00
3308;DHT22;1666;48.898;9.182;2024-01-16T10:48:04;1.30;1.00
3308;DHT22;1666;48.898;9.182;2024-01-16T10:50:37;1.30;1.00
3308;DHT22;1666;48.898;9.182;2024-01-16T10:53:08;1.40;1.00
3308;DHT22;1666;48.898;9.182;2024-01-16T10:55:45;1.30;1.00
3308;DHT22;1666;48.898;9.182;2024-01-16T10:58:23;1.40;1.00
3308;DHT22;1666;48.898;9.182;2024-01-16T11:00:53;1.50;1.00
3308;DHT22;1666;48.898;9.182;2024-01-16T11:03:28;1.80;1.00
3308;DHT22;1666;48.898;9.182;2024-01-16T11:06:00;2.00;1.00
3308;DHT22;1666;48.898;9.182;2024-01-16T11:08:31;1.90;1.00
3308;DHT22;1666;48.898;9.182;2024-01-16T11:11:03;2.40;1.00
3308;DHT22;1666;48.898;9.182;2024-01-16T11:13:38;2.30;1.00
3308;DHT22;1666;48.898;9.182;2024-01-16T11:16:11;1.90;1.00
3308;DHT22;1666;48.898;9.182;2024-01-16T11:18:42;1.70;1.00
3308;DHT22;1666;48.898;9.182;2024-01-16T11:21:13;2.10;1.00
3308;DHT22;1666;48.898;9.182;2024-01-16T11:23:46;2.10;1.00
3308;DHT22;1666;48.898;9.182;2024-01-16T11:26:26;2.00;1.00
3308;DHT22;1666;48.898;9.182;2024-01-16T11:29:01;1.90;1.00
3308;DHT22;1666;48.898;9.182;2024-01-16T11:31:36;1.90;1.00
3308;DHT22;1666;48.898;9.182;2024-01-16T11:34:06;2.00;1.00
3308;DHT22;1666;48.898;9.182;2024-01-16T11:36:52;2.00;1.00
3308;DHT22;1666;48.898;9.182;2024-01-16T11:39:24;2.20;1.00
3308;DHT22;1666;48.898;9.182;2024-01-16T11:41:56;2.40;1.00
3308;DHT22;1666;48.898;9.182;2024-01-16T11:44:43;2.20;1.00
3308;DHT22;1666;48.898;9.182;2024-01-16T11:47:16;2.30;1.00
3308;DHT22;1666;48.898;9.182;2024-01-16T11:49:51;2.50;1.00
3308;DHT22;1666;48.898;9.182;2024-01-16T11:52:39;2.30;1.00
3308;DHT22;1666;48.898;9.182;2024-01-16T11:55:25;2.40;1.00
3308;DHT22;1666;48.898;9.182;2024-01-16T11:58:21;2.50;1.00
3308;DHT22;1666;48.898;9.182;2024-01-16T12:00:59;2.50;1.00
3308;DHT22;1666;48.898;9.182;2024-01-16T12:03:32;2.40;1.00
3308;DHT22;1666;48.898;9.182;2024-01-16T12:06:03;2.00;1.00
3308;DHT22;1666;48.898;9.182;2024-01-16T12:08:34;2.30;1.00
3308;DHT22;1666;48.898;9.182;2024-01-16T12:11:06;2.70;1.00
3308;DHT22;1666;48.898;9.182;2024-01-16T12:13:37;2.50;1.00
3308;DHT22;1666;48.898;9.182;2024-01-16T12:16:09;2.80;1.00
3308;DHT22;1666;48.898;9.182;2024-01-16T12:18:39;2.90;1.00
3308;DHT22;1666;48.898;9.182;2024-01-16T12:21:13;3.10;1.00
3308;DHT22;1666;48.898;9.182;2024-01-16T12:23:44;3.00;1.00
3308;DHT22;1666;48.898;9.182;2024-01-16T12:26:26;2.80;1.00
3308;DHT22;1666;48.898;9.182;2024-01-16T12:28:56;2.60;1.00
3308;DHT22;1666;48.898;9.182;2024-01-16T12:31:29;2.50;1.00
3308;DHT22;1666;48.898;9.182;2024-01-16T12:34:05;2.50;1.00
3308;DHT22;1666;48.898;9.182;2024-01-16T12:36:37;2.80;1.00
3308;DHT22;1666;48.898;9.182;2024-01-16T12:39:07;2.60;1.00
3308;DHT22;1666;48.898;9.182;2024-01-16T12:41:41;2.90;1.00
3308;DHT22;1666;48.898;9.182;2024-01-16T12:44:13;2.80;1.00
3308;DHT22;1666;48.898;9.182;2024-01-16T12:46:53;2.80;1.00
3308;DHT22;1666;48.898;9.182;2024-01-16T12:49:24;2.50;1.00
3308;DHT22;1666;48.898;9.182;2024-01-16T12:52:16;2.50;1.00
3308;DHT22;1666;48.898;9.182;2024-01-16T12:54:48;2.50;1.00
3308;DHT22;1666;48.898;9.182;2024-01-16T12:57:19;2.40;1.00
3308;DHT22;1666;48.898;9.182;2024-01-16T12:59:49;2.30;1.00
3308;DHT22;1666;48.898;9.182;2024-01-16T13:02:24;2.10;1.00
3308;DHT22;1666;48.898;9.182;2024-01-16T13:04:57;2.10;1.00
3308;DHT22;1666;48.898;9.182;2024-01-16T13:07:30;2.10;1.00
3308;DHT22;1666;48.898;9.182;2024-01-16T13:10:08;1.90;1.00
3308;DHT22;1666;48.898;9.182;2024-01-16T13:12:39;1.90;1.00
3308;DHT22;1666;48.898;9.182;2024-01-16T13:15:09;1.90;1.00
3308;DHT22;1666;48.898;9.182;2024-01-16T13:17:48;1.80;1.00
3308;DHT22;1666;48.898;9.182;2024-01-16T13:20:18;1.90;1.00
3308;DHT22;1666;48.898;9.182;2024-01-16T13:22:48;1.90;1.00
3308;DHT22;1666;48.898;9.182;2024-01-16T13:25:19;1.80;1.00
3308;DHT22;1666;48.898;9.182;2024-01-16T13:27:49;1.90;1.00
3308;DHT22;1666;48.898;9.182;2024-01-16T13:30:20;2.00;1.00
3308;DHT22;1666;48.898;9.182;2024-01-16T13:33:01;2.10;1.00
3308;DHT22;1666;48.898;9.182;2024-01-16T13:35:34;2.10;1.00
3308;DHT22;1666;48.898;9.182;2024-01-16T13:38:04;2.10;1.00
3308;DHT22;1666;48.898;9.182;2024-01-16T13:40:35;2.30;1.00
3308;DHT22;1666;48.898;9.182;2024-01-16T13:43:05;2.40;1.00
3308;DHT22;1666;48.898;9.182;2024-01-16T13:45:38;2.30;1.00
3308;DHT22;1666;48.898;9.182;2024-01-16T13:48:11;2.10;1.00
3308;DHT22;1666;48.898;9.182;2024-01-16T13:50:41;2.10;1.00
3308;DHT22;1666;48.898;9.182;2024-01-16T13:53:11;2.10;1.00
3308;DHT22;1666;48.898;9.182;2024-01-16T13:55:42;2.10;1.00
3308;DHT22;1666;48.898;9.182;2024-01-16T13:58:13;2.10;1.00
3308;DHT22;1666;48.898;9.182;2024-01-16T14:00:43;2.00;1.00
3308;DHT22;1666;48.898;9.182;2024-01-16T14:03:16;2.10;1.00
3308;DHT22;1666;48.898;9.182;2024-01-16T14:05:47;2.10;1.00
3308;DHT22;1666;48.898;9.182;2024-01-16T14:08:17;2.00;1.00
3308;DHT22;1666;48.898;9.182;2024-01-16T14:10:47;1.90;1.00
3308;DHT22;1666;48.898;9.182;2024-01-16T14:13:17;2.00;1.00
3308;DHT22;1666;48.898;9.182;2024-01-16T14:15:47;2.10;1.00
3308;DHT22;1666;48.898;9.182;2024-01-16T14:18:20;2.00;1.00
3308;DHT22;1666;48.898;9.182;2024-01-16T14:20:50;2.00;1.00
3308;DHT22;1666;48.898;9.182;2024-01-16T14:23:20;2.00;1.00
3308;DHT22;1666;48.898;9.182;2024-01-16T14:25:50;2.00;1.00
3308;DHT22;1666;48.898;9.182;2024-01-16T14:28:20;1.90;1.00
3308;DHT22;1666;48.898;9.182;2024-01-16T14:30:56;1.90;1.00
3308;DHT22;1666;48.898;9.182;2024-01-16T14:33:30;1.80;1.00
3308;DHT22;1666;48.898;9.182;2024-01-16T14:36:00;1.90;1.00
3308;DHT22;1666;48.898;9.182;2024-01-16T14:38:31;1.80;1.00
3308;DHT22;1666;48.898;9.182;2024-01-16T14:41:01;1.80;1.00
3308;DHT22;1666;48.898;9.182;2024-01-16T14:43:31;1.80;1.00
3308;DHT22;1666;48.898;9.182;2024-01-16T14:46:01;1.80;1.00
3308;DHT22;1666;48.898;9.182;2024-01-16T14:48:34;1.80;1.00
3308;DHT22;1666;48.898;9.182;2024-01-16T14:51:04;1.70;1.00
3308;DHT22;1666;48.898;9.182;2024-01-16T14:53:34;1.70;1.00
3308;DHT22;1666;48.898;9.182;2024-01-16T14:56:04;1.60;1.00
3308;DHT22;1666;48.898;9.182;2024-01-16T14:58:35;1.50;1.00
3308;DHT22;1666;48.898;9.182;2024-01-16T15:01:05;1.50;1.00
3308;DHT22;1666;48.898;9.182;2024-01-16T15:03:37;1.50;1.00
3308;DHT22;1666;48.898;9.182;2024-01-16T15:06:08;1.40;1.00
3308;DHT22;1666;48.898;9.182;2024-01-16T15:08:40;1.30;1.00
3308;DHT22;1666;48.898;9.182;2024-01-16T15:11:10;1.40;1.00
3308;DHT22;1666;48.898;9.182;2024-01-16T15:13:41;1.30;1.00
3308;DHT22;1666;48.898;9.182;2024-01-16T15:16:12;1.20;1.00
3308;DHT22;1666;48.898;9.182;2024-01-16T15:18:46;1.20;1.00
3308;DHT22;1666;48.898;9.182;2024-01-16T15:21:16;1.10;1.00
3308;DHT22;1666;48.898;9.182;2024-01-16T15:23:47;1.10;1.00
3308;DHT22;1666;48.898;9.182;2024-01-16T15:26:18;1.00;1.00
3308;DHT22;1666;48.898;9.182;2024-01-16T15:28:49;1.00;1.00
3308;DHT22;1666;48.898;9.182;2024-01-16T15:31:19;1.00;1.00
3308;DHT22;1666;48.898;9.182;2024-01-16T15:33:52;0.90;1.00
3308;DHT22;1666;48.898;9.182;2024-01-16T15:36:22;0.70;1.00
3308;DHT22;1666;48.898;9.182;2024-01-16T15:38:52;0.60;1.00
3308;DHT22;1666;48.898;9.182;2024-01-16T15:41:22;0.60;1.00
3308;DHT22;1666;48.898;9.182;2024-01-16T15:43:53;0.50;1.00
3308;DHT22;1666;48.898;9.182;2024-01-16T15:46:27;0.40;1.00
3308;DHT22;1666;48.898;9.182;2024-01-16T15:49:00;0.30;1.00
3308;DHT22;1666;48.898;9.182;2024-01-16T15:51:30;0.30;1.00
3308;DHT22;1666;48.898;9.182;2024-01-16T15:54:00;0.30;1.00
3308;DHT22;1666;48.898;9.182;2024-01-16T15:56:29;0.30;1.00
3308;DHT22;1666;48.898;9.182;2024-01-16T15:59:00;0.10;1.00
3308;DHT22;1666;48.898;9.182;2024-01-16T16:01:31;0.10;1.00
3308;DHT22;1666;48.898;9.182;2024-01-16T16:04:04;0.10;1.00
3308;DHT22;1666;48.898;9.182;2024-01-16T16:06:34;0.00;1.00
3308;DHT22;1666;48.898;9.182;2024-01-16T16:09:05;0.10;1.00
3308;DHT22;1666;48.898;9.182;2024-01-16T16:11:38;0.00;1.00
3308;DHT22;1666;48.898;9.182;2024-01-16T16:14:09;-0.10;1.00
3308;DHT22;1666;48.898;9.182;2024-01-16T16:16:40;-0.10;1.00
3308;DHT22;1666;48.898;9.182;2024-01-16T16:19:13;-0.10;1.00
3308;DHT22;1666;48.898;9.182;2024-01-16T16:21:43;-0.10;1.00
3308;DHT22;1666;48.898;9.182;2024-01-16T16:24:16;-0.10;1.00
3308;DHT22;1666;48.898;9.182;2024-01-16T16:26:46;-0.10;1.00
3308;DHT22;1666;48.898;9.182;2024-01-16T16:29:16;-0.10;1.00
3308;DHT22;1666;48.898;9.182;2024-01-16T16:31:47;-0.10;1.00
3308;DHT22;1666;48.898;9.182;2024-01-16T16:34:19;-0.20;1.00
3308;DHT22;1666;48.898;9.182;2024-01-16T16:36:49;-0.30;1.00
3308;DHT22;1666;48.898;9.182;2024-01-16T16:39:19;-0.50;1.00
3308;DHT22;1666;48.898;9.182;2024-01-16T16:41:50;-0.60;1.00
3308;DHT22;1666;48.898;9.182;2024-01-16T16:44:20;-0.60;1.00
3308;DHT22;1666;48.898;9.182;2024-01-16T16:46:50;-0.70;1.00
3308;DHT22;1666;48.898;9.182;2024-01-16T16:49:22;-0.80;1.00
3308;DHT22;1666;48.898;9.182;2024-01-16T16:51:53;-0.90;1.00